Time;durP1;ratioP1;P1;durP2;ratioP2;P2;SDS_P1;SDS_P2;PMS_P1;PMS_P2;Temp;Humidity;BMP_temperature;BMP_pressure;BME280_temperature;BME280_humidity;BME280_pressure;Samples;Min_cycle;Max_cycle;Signal;HPM_P1;HPM_P2
2023/10/08 00:00:38;;;;;;;2.47;0.43;;;13.60;99.90;;;;;;5039366;28;20041;-74
2023/10/08 00:02:45;;;;;;;0.47;0.32;;;13.50;99.90;;;;;;5063365;28;20530;-74
2023/10/08 00:05:11;;;;;;;0.98;0.30;;;13.50;99.90;;;;;;5061225;28;20128;-74
2023/10/08 00:07:36;;;;;;;0.38;0.30;;;13.50;99.90;;;;;;5060486;28;20120;-73
2023/10/08 00:10:02;;;;;;;1.48;0.50;;;13.50;99.90;;;;;;5043052;28;20470;-73
2023/10/08 00:12:29;;;;;;;1.45;0.60;;;13.50;99.90;;;;;;5042326;28;20124;-74
2023/10/08 00:14:54;;;;;;;4.38;0.60;;;13.50;99.90;;;;;;5060498;28;20044;-74
2023/10/08 00:17:20;;;;;;;1.90;0.50;;;13.50;99.90;;;;;;5065759;28;20667;-75
2023/10/08 00:19:52;;;;;;;4.97;1.00;;;13.50;99.90;;;;;;5063470;28;20053;-74
2023/10/08 00:22:19;;;;;;;1.52;0.70;;;13.50;99.90;;;;;;5061977;28;20041;-73
2023/10/08 00:24:54;;;;;;;2.70;0.50;;;13.40;99.90;;;;;;5041957;28;20120;-73
2023/10/08 00:27:21;;;;;;;1.02;0.50;;;13.40;99.90;;;;;;5042720;28;20075;-73
2023/10/08 00:29:47;;;;;;;8.00;0.60;;;13.40;99.90;;;;;;5061641;28;20052;-73
2023/10/08 00:32:13;;;;;;;3.65;0.47;;;13.40;99.90;;;;;;5041899;28;20048;-73
2023/10/08 00:34:42;;;;;;;1.02;0.43;;;13.40;99.90;;;;;;5061883;28;20060;-74
2023/10/08 00:37:10;;;;;;;2.47;0.43;;;13.40;99.90;;;;;;5045269;28;20431;-73
2023/10/08 00:39:38;;;;;;;2.10;0.50;;;13.40;99.90;;;;;;5036851;28;20061;-74
2023/10/08 00:42:06;;;;;;;2.70;0.50;;;13.30;99.90;;;;;;5059826;28;20126;-74
2023/10/08 00:44:35;;;;;;;2.53;0.60;;;13.40;99.90;;;;;;5041942;28;20428;-75
2023/10/08 00:47:01;;;;;;;2.67;0.47;;;13.30;99.90;;;;;;5053757;28;20045;-74
2023/10/08 00:57:27;;;;;;;4.93;0.90;;;13.20;99.90;;;;;;5057465;28;20508;-74
2023/10/08 00:59:53;;;;;;;1.95;0.70;;;13.30;99.90;;;;;;5061599;28;20037;-74
2023/10/08 01:02:27;;;;;;;4.78;0.70;;;13.20;99.90;;;;;;5059051;28;20049;-74
2023/10/08 01:04:54;;;;;;;1.90;0.80;;;13.20;99.90;;;;;;5059471;28;20101;-75
2023/10/08 01:07:21;;;;;;;4.90;1.00;;;13.20;99.90;;;;;;5039594;28;20484;-75
2023/10/08 01:09:51;;;;;;;3.22;0.85;;;13.30;99.90;;;;;;5047981;28;20090;-75
2023/10/08 01:12:29;;;;;;;3.55;0.73;;;13.30;99.90;;;;;;5060258;28;20045;-75
2023/10/08 01:15:04;;;;;;;3.92;0.70;;;13.30;99.90;;;;;;5062784;28;20102;-74
2023/10/08 01:17:32;;;;;;;3.97;0.85;;;13.20;99.90;;;;;;5040611;28;20049;-75
2023/10/08 01:20:20;;;;;;;2.88;0.60;;;13.20;99.90;;;;;;5059159;28;20048;-75
2023/10/08 01:22:44;;;;;;;2.00;0.80;;;13.20;99.90;;;;;;5040557;28;20053;-74
2023/10/08 01:25:10;;;;;;;3.20;0.90;;;13.20;99.90;;;;;;5048076;28;20061;-75
2023/10/08 01:27:37;;;;;;;3.03;0.75;;;13.30;99.90;;;;;;5053933;28;20048;-74
2023/10/08 01:30:17;;;;;;;2.60;0.70;;;13.20;99.90;;;;;;5062262;28;20048;-74
2023/10/08 01:32:44;;;;;;;2.33;0.60;;;13.20;99.90;;;;;;5040755;28;20080;-74
2023/10/08 01:35:26;;;;;;;3.45;0.70;;;13.20;99.90;;;;;;5060005;28;20052;-74
2023/10/08 01:37:52;;;;;;;2.40;0.70;;;13.20;99.90;;;;;;5048850;28;20037;-74
2023/10/08 01:40:18;;;;;;;3.13;0.60;;;13.20;99.90;;;;;;5047796;28;20560;-74
2023/10/08 01:42:45;;;;;;;4.47;0.80;;;13.20;99.90;;;;;;5040442;28;20554;-75
2023/10/08 01:45:17;;;;;;;6.28;1.15;;;13.20;99.90;;;;;;5055545;28;20086;-76
2023/10/08 01:47:43;;;;;;;3.13;0.90;;;13.20;99.90;;;;;;5060745;28;20044;-75
2023/10/08 01:50:21;;;;;;;4.35;0.93;;;13.20;99.90;;;;;;5058161;28;20060;-75
2023/10/08 01:52:47;;;;;;;5.47;0.90;;;13.20;99.90;;;;;;5059851;28;20073;-75
2023/10/08 01:55:17;;;;;;;4.68;0.90;;;13.20;99.90;;;;;;5044930;28;20679;-75
2023/10/08 01:57:46;;;;;;;3.03;0.70;;;13.20;99.90;;;;;;5060232;28;20057;-74
2023/10/08 02:00:14;;;;;;;3.15;1.00;;;13.20;99.90;;;;;;5040301;28;20041;-75
2023/10/08 02:02:43;;;;;;;3.17;0.85;;;13.10;99.90;;;;;;5058192;28;20135;-75
2023/10/08 02:05:09;;;;;;;2.63;0.82;;;13.10;99.90;;;;;;5056589;28;20044;-75
2023/10/08 02:07:35;;;;;;;3.67;0.77;;;13.10;99.90;;;;;;5058660;28;20044;-74
2023/10/08 02:10:00;;;;;;;4.32;0.98;;;13.20;99.90;;;;;;5058813;28;20052;-75
2023/10/08 02:12:26;;;;;;;8.88;1.10;;;13.10;99.90;;;;;;5041991;28;20400;-75
2023/10/08 02:14:52;;;;;;;8.60;0.88;;;13.10;99.90;;;;;;5063830;28;20383;-75
2023/10/08 02:17:18;;;;;;;3.45;0.60;;;13.10;99.90;;;;;;5041671;28;20092;-75
2023/10/08 02:19:45;;;;;;;5.32;1.00;;;13.10;99.90;;;;;;5054705;28;20545;-74
2023/10/08 02:22:11;;;;;;;5.25;0.80;;;13.10;99.90;;;;;;5060385;28;20510;-74
2023/10/08 02:24:37;;;;;;;5.05;0.73;;;13.10;99.90;;;;;;5034417;28;20044;-75
2023/10/08 02:27:03;;;;;;;9.93;0.82;;;13.10;99.90;;;;;;5058392;28;20459;-75
2023/10/08 02:29:30;;;;;;;3.28;0.70;;;13.10;99.90;;;;;;5042238;28;20511;-75
2023/10/08 02:31:56;;;;;;;6.55;0.82;;;13.10;99.90;;;;;;5061537;28;20062;-75
2023/10/08 02:34:22;;;;;;;6.70;0.85;;;13.10;99.90;;;;;;5054264;28;20044;-75
2023/10/08 02:36:48;;;;;;;5.45;1.02;;;12.90;99.90;;;;;;5043331;28;20135;-75
2023/10/08 02:39:21;;;;;;;3.08;0.80;;;13.10;99.90;;;;;;5061565;28;20093;-75
2023/10/08 02:41:48;;;;;;;4.20;0.80;;;12.90;99.90;;;;;;5058748;28;20116;-74
2023/10/08 02:44:15;;;;;;;6.03;0.85;;;12.90;99.90;;;;;;5041389;28;20454;-75
2023/10/08 02:46:42;;;;;;;3.63;1.40;;;12.90;99.90;;;;;;5059045;28;20051;-75
2023/10/08 02:49:11;;;;;;;6.72;1.05;;;12.90;99.90;;;;;;5043398;28;20040;-75
2023/10/08 02:51:41;;;;;;;6.93;1.73;;;12.90;99.90;;;;;;5061007;28;20056;-75
2023/10/08 02:54:16;;;;;;;5.20;1.15;;;12.90;99.90;;;;;;5058080;28;20037;-75
2023/10/08 02:56:45;;;;;;;5.65;1.30;;;12.90;99.90;;;;;;5034704;28;20072;-75
2023/10/08 02:59:12;;;;;;;5.95;1.00;;;12.90;99.90;;;;;;5036509;28;20068;-75
2023/10/08 03:01:41;;;;;;;5.95;1.40;;;12.90;99.90;;;;;;5039167;28;20116;-76
2023/10/08 03:04:18;;;;;;;8.02;1.17;;;12.90;99.90;;;;;;5037756;28;20106;-75
2023/10/08 03:06:54;;;;;;;6.97;1.20;;;12.90;99.90;;;;;;5022264;28;20036;-76
2023/10/08 03:09:23;;;;;;;5.32;1.50;;;12.90;99.90;;;;;;5037425;28;20038;-75
2023/10/08 03:11:50;;;;;;;5.30;1.02;;;12.90;99.90;;;;;;5044690;28;20454;-76
2023/10/08 03:14:23;;;;;;;5.82;1.13;;;12.90;99.90;;;;;;5038204;28;20646;-75
2023/10/08 03:16:53;;;;;;;5.70;1.70;;;12.80;99.90;;;;;;5041726;28;20045;-76
2023/10/08 03:19:20;;;;;;;4.53;1.23;;;12.80;99.90;;;;;;5034350;28;20048;-76
2023/10/08 03:21:56;;;;;;;6.05;1.38;;;12.90;99.90;;;;;;5040721;28;20445;-75
2023/10/08 03:24:57;;;;;;;8.80;1.13;;;12.90;99.90;;;;;;5038779;28;20053;-76
2023/10/08 03:27:20;;;;;;;5.43;1.10;;;12.90;99.90;;;;;;5035225;28;20054;-74
2023/10/08 03:29:49;;;;;;;5.90;1.40;;;12.90;99.90;;;;;;5039925;28;20045;-75
2023/10/08 03:32:18;;;;;;;7.05;1.23;;;12.90;99.90;;;;;;5036990;28;20061;-75
2023/10/08 03:34:46;;;;;;;4.65;1.45;;;12.90;99.90;;;;;;5042278;28;20044;-76
2023/10/08 03:37:29;;;;;;;6.07;1.20;;;13.00;99.90;;;;;;5045827;28;20044;-75
2023/10/08 03:40:02;;;;;;;4.45;1.20;;;12.90;99.90;;;;;;5039641;28;20130;-74
2023/10/08 03:42:34;;;;;;;4.03;1.23;;;12.90;99.90;;;;;;5046037;28;20569;-74
2023/10/08 03:45:09;;;;;;;6.07;1.17;;;13.20;99.90;;;;;;5040620;28;20392;-76
2023/10/08 03:47:37;;;;;;;5.65;1.45;;;12.90;99.90;;;;;;5036471;28;20057;-76
2023/10/08 03:50:09;;;;;;;4.55;1.52;;;12.90;99.90;;;;;;5025672;28;20777;-75
2023/10/08 03:52:38;;;;;;;4.05;1.23;;;12.90;99.90;;;;;;5039260;28;20064;-74
2023/10/08 03:57:44;;;;;;;4.45;1.10;;;12.90;99.90;;;;;;5061019;28;20057;-74
2023/10/08 04:00:28;;;;;;;1.98;0.90;;;12.90;99.90;;;;;;5052328;28;20064;-75
2023/10/08 04:03:00;;;;;;;5.35;1.20;;;12.90;99.90;;;;;;5043883;28;20124;-75
2023/10/08 04:05:43;;;;;;;5.47;1.25;;;12.90;99.90;;;;;;5063897;28;20048;-75
2023/10/08 04:08:24;;;;;;;4.25;1.20;;;12.80;99.90;;;;;;5062423;28;20044;-74
2023/10/08 04:11:13;;;;;;;3.53;0.95;;;12.90;99.90;;;;;;5063757;28;20048;-75
2023/10/08 04:13:45;;;;;;;2.72;1.00;;;12.90;99.90;;;;;;5042454;28;20113;-75
2023/10/08 04:16:10;;;;;;;2.95;1.23;;;12.90;99.90;;;;;;5045652;28;20069;-75
2023/10/08 04:18:40;;;;;;;4.57;1.00;;;12.90;99.90;;;;;;5028868;28;20044;-75
2023/10/08 04:21:12;;;;;;;7.93;1.10;;;12.80;99.90;;;;;;5044780;28;20084;-76
2023/10/08 04:23:39;;;;;;;4.07;0.90;;;12.90;99.90;;;;;;5053918;28;20056;-75
2023/10/08 04:26:06;;;;;;;5.05;0.98;;;12.90;99.90;;;;;;5044610;28;20049;-75
2023/10/08 04:28:35;;;;;;;6.63;0.82;;;12.90;99.90;;;;;;5025504;28;20063;-75
2023/10/08 04:31:14;;;;;;;4.15;1.00;;;12.90;99.90;;;;;;5062020;28;20040;-75
2023/10/08 04:33:41;;;;;;;4.20;1.10;;;12.90;99.90;;;;;;5058304;28;20144;-75
2023/10/08 04:36:09;;;;;;;3.50;1.45;;;12.90;99.90;;;;;;5045156;28;20170;-75
2023/10/08 04:38:40;;;;;;;3.05;1.10;;;12.90;99.90;;;;;;5043289;28;20044;-75
2023/10/08 04:41:09;;;;;;;7.00;1.10;;;12.90;99.90;;;;;;5021567;28;20381;-75
2023/10/08 04:43:37;;;;;;;2.53;0.93;;;12.90;99.90;;;;;;5043086;28;20065;-74
2023/10/08 04:46:47;;;;;;;5.05;1.33;;;12.90;99.90;;;;;;5040276;28;20059;-75
2023/10/08 04:48:53;;;;;;;4.32;0.95;;;12.90;99.90;;;;;;5034617;28;20508;-74
2023/10/08 04:51:21;;;;;;;5.60;1.27;;;12.90;99.90;;;;;;5060909;28;20107;-75
2023/10/08 04:53:47;;;;;;;5.63;1.10;;;12.90;99.90;;;;;;5040813;28;20141;-75
2023/10/08 04:56:16;;;;;;;4.35;1.20;;;13.00;99.90;;;;;;5059909;28;20080;-74
2023/10/08 04:58:46;;;;;;;5.50;1.42;;;12.90;99.90;;;;;;5026646;28;20052;-76
2023/10/08 05:01:17;;;;;;;5.30;1.15;;;13.00;99.90;;;;;;5042508;28;20041;-75
2023/10/08 05:17:11;;;;;;;5.97;1.38;;;13.00;99.90;;;;;;4975857;28;20058;-76
2023/10/08 05:25:11;;;;;;;4.43;1.10;;;13.30;99.90;;;;;;4980614;28;20046;-75
2023/10/08 05:30:25;;;;;;;6.55;1.08;;;12.90;99.90;;;;;;4952816;28;20062;-75
2023/10/08 05:38:30;;;;;;;10.07;1.33;;;12.90;99.90;;;;;;4956550;28;20090;-75
2023/10/08 05:49:01;;;;;;;5.10;1.30;;;12.90;99.90;;;;;;5003963;28;20079;-75
2023/10/08 05:54:35;;;;;;;6.93;1.40;;;12.90;99.90;;;;;;5036947;28;20126;-76
2023/10/08 06:13:29;;;;;;;7.07;1.48;;;13.10;99.90;;;;;;5041003;28;20048;-75
2023/10/08 06:18:28;;;;;;;6.25;1.40;;;13.00;99.90;;;;;;5041140;28;20045;-75
2023/10/08 06:21:00;;;;;;;4.47;1.40;;;13.00;99.90;;;;;;5040389;28;20040;-75
2023/10/08 06:23:35;;;;;;;2.67;1.55;;;13.00;99.90;;;;;;5061224;28;20048;-75
2023/10/08 06:28:36;;;;;;;5.10;1.48;;;13.00;99.90;;;;;;5058018;28;20412;-76
2023/10/08 06:31:06;;;;;;;4.05;1.23;;;13.00;99.90;;;;;;5039209;28;20128;-74
2023/10/08 06:33:37;;;;;;;5.80;1.25;;;13.00;99.90;;;;;;5058056;28;20048;-73
2023/10/08 06:36:13;;;;;;;7.35;1.35;;;13.00;99.90;;;;;;5057442;28;20048;-74
2023/10/08 06:38:42;;;;;;;11.32;1.63;;;13.00;99.90;;;;;;5058232;28;20123;-76
2023/10/08 06:43:49;;;;;;;5.40;1.40;;;13.10;99.90;;;;;;5057805;28;20052;-75
2023/10/08 06:46:22;;;;;;;6.45;1.58;;;12.70;99.90;;;;;;5039650;28;20497;-76
2023/10/08 06:48:49;;;;;;;6.38;1.48;;;13.00;99.90;;;;;;5039764;28;20053;-76
2023/10/08 06:51:18;;;;;;;6.38;1.60;;;13.10;99.90;;;;;;5058252;28;20088;-75
2023/10/08 06:53:47;;;;;;;7.13;1.40;;;13.10;99.90;;;;;;5060447;28;20051;-76
2023/10/08 06:56:18;;;;;;;6.60;1.55;;;13.10;99.90;;;;;;5042898;28;20457;-75
2023/10/08 07:01:13;;;;;;;8.90;1.23;;;13.50;99.90;;;;;;5041026;28;20102;-75
2023/10/08 07:03:39;;;;;;;3.90;1.20;;;13.20;99.90;;;;;;5040258;28;20127;-76
2023/10/08 07:06:16;;;;;;;7.97;1.90;;;13.30;99.90;;;;;;5060851;28;20543;-75
2023/10/08 07:08:46;;;;;;;6.25;1.65;;;13.30;99.90;;;;;;5060038;28;20044;-75
2023/10/08 07:11:13;;;;;;;7.95;1.60;;;13.30;99.90;;;;;;5057849;28;20049;-75
2023/10/08 07:13:42;;;;;;;8.95;1.73;;;13.40;99.90;;;;;;5057523;28;20040;-75
2023/10/08 07:16:11;;;;;;;8.77;1.77;;;13.40;99.90;;;;;;5042670;28;20426;-76
2023/10/08 07:18:41;;;;;;;7.50;1.60;;;13.40;99.90;;;;;;5042981;28;20415;-75
2023/10/08 07:21:13;;;;;;;7.25;1.60;;;13.50;99.90;;;;;;5039473;28;20053;-76
2023/10/08 07:24:00;;;;;;;6.65;1.60;;;13.50;99.90;;;;;;5057529;28;20483;-75
2023/10/08 07:26:35;;;;;;;5.63;1.58;;;13.50;99.90;;;;;;5038888;28;20078;-76
2023/10/08 07:29:07;;;;;;;9.50;1.90;;;13.60;99.90;;;;;;5040276;28;20401;-75
2023/10/08 07:31:35;;;;;;;8.27;1.50;;;13.60;99.90;;;;;;5059444;28;20650;-75
2023/10/08 07:37:05;;;;;;;8.35;1.50;;;13.60;99.90;;;;;;4979283;28;20085;-76
2023/10/08 07:41:58;;;;;;;10.85;1.60;;;13.60;99.90;;;;;;4998307;28;20042;-75
2023/10/08 07:44:28;;;;;;;6.40;1.52;;;13.60;99.90;;;;;;4983827;28;20177;-76
2023/10/08 07:46:54;;;;;;;8.68;1.45;;;13.70;99.90;;;;;;4998396;28;20077;-76
2023/10/08 07:49:23;;;;;;;9.60;1.42;;;13.70;99.90;;;;;;4982235;28;20092;-76
2023/10/08 07:51:52;;;;;;;14.77;1.50;;;13.70;99.90;;;;;;4978995;28;20142;-76
2023/10/08 07:54:27;;;;;;;13.38;1.67;;;13.70;99.90;;;;;;4972809;28;20486;-75
2023/10/08 07:57:09;;;;;;;8.18;1.20;;;13.70;99.90;;;;;;4987388;28;20116;-76
2023/10/08 07:59:46;;;;;;;13.93;1.70;;;13.70;99.90;;;;;;4979494;28;20520;-75
2023/10/08 08:02:12;;;;;;;8.88;2.05;;;13.70;99.90;;;;;;4998418;28;20056;-74
2023/10/08 08:04:43;;;;;;;9.82;1.70;;;13.80;99.90;;;;;;4997536;28;20497;-75
2023/10/08 08:07:16;;;;;;;7.65;1.30;;;13.70;99.90;;;;;;4971620;28;20129;-75
2023/10/08 08:09:52;;;;;;;11.75;2.00;;;13.60;99.90;;;;;;4981396;28;20050;-75
2023/10/08 08:12:21;;;;;;;6.05;1.10;;;13.60;99.90;;;;;;5042065;28;20075;-75
2023/10/08 08:14:48;;;;;;;8.07;1.33;;;13.70;99.90;;;;;;5059714;28;20159;-75
2023/10/08 08:17:14;;;;;;;7.95;1.27;;;13.70;99.90;;;;;;5034047;28;20098;-76
2023/10/08 08:19:47;;;;;;;6.03;1.15;;;13.70;99.90;;;;;;5038542;28;20047;-75
2023/10/08 08:22:23;;;;;;;9.50;1.20;;;13.70;99.90;;;;;;5045544;28;20060;-75
2023/10/08 08:24:53;;;;;;;11.60;1.73;;;13.70;99.90;;;;;;5063733;28;20036;-75
2023/10/08 08:27:31;;;;;;;9.30;1.65;;;13.80;99.90;;;;;;5060918;28;20056;-75
2023/10/08 08:30:09;;;;;;;7.50;1.70;;;13.90;99.90;;;;;;5048631;28;20426;-75
2023/10/08 08:32:43;;;;;;;15.50;1.63;;;13.90;99.90;;;;;;5042696;28;20056;-75
2023/10/08 08:35:10;;;;;;;8.18;1.42;;;14.00;99.90;;;;;;5060836;28;20128;-76
2023/10/08 08:37:38;;;;;;;9.50;1.60;;;14.10;99.90;;;;;;5045201;28;20051;-75
2023/10/08 08:40:21;;;;;;;6.93;1.27;;;14.10;99.90;;;;;;5040466;28;20045;-75
2023/10/08 08:42:48;;;;;;;10.10;1.80;;;14.20;99.90;;;;;;5043668;28;20061;-75
2023/10/08 08:45:20;;;;;;;10.20;1.58;;;14.20;99.90;;;;;;5044366;28;20178;-75
2023/10/08 08:47:46;;;;;;;10.73;1.48;;;14.30;99.90;;;;;;5042317;28;20540;-74
2023/10/08 08:50:12;;;;;;;12.93;2.28;;;14.30;99.90;;;;;;5041475;28;20186;-75
2023/10/08 08:52:39;;;;;;;11.10;1.95;;;14.40;99.90;;;;;;5062163;28;20052;-75
2023/10/08 08:55:13;;;;;;;12.13;1.70;;;14.50;99.90;;;;;;5063452;28;20036;-76
2023/10/08 08:57:40;;;;;;;6.75;1.25;;;14.60;99.90;;;;;;5061070;28;20609;-75
2023/10/08 09:00:11;;;;;;;11.45;2.35;;;14.60;99.90;;;;;;5065552;28;20296;-75
2023/10/08 09:02:40;;;;;;;9.85;2.13;;;14.70;99.90;;;;;;5043087;28;20056;-76
2023/10/08 09:05:25;;;;;;;11.35;1.65;;;14.80;99.90;;;;;;5061497;28;20132;-75
2023/10/08 09:08:02;;;;;;;4.13;1.50;;;14.90;99.90;;;;;;5065997;28;20139;-76
2023/10/08 09:10:29;;;;;;;9.38;2.03;;;15.10;99.90;;;;;;5048657;28;20064;-75
2023/10/08 09:12:59;;;;;;;13.65;1.65;;;15.20;99.90;;;;;;5033171;28;20084;-76
2023/10/08 09:15:26;;;;;;;5.97;1.30;;;15.40;99.90;;;;;;5063012;28;20137;-76
2023/10/08 09:17:54;;;;;;;7.53;1.67;;;15.60;99.90;;;;;;5049701;28;20045;-75
2023/10/08 09:20:20;;;;;;;8.85;1.67;;;15.70;99.90;;;;;;5042584;28;20079;-75
2023/10/08 09:23:07;;;;;;;8.98;1.58;;;15.90;99.90;;;;;;5063611;28;20646;-75
2023/10/08 09:25:36;;;;;;;9.20;1.27;;;16.10;99.90;;;;;;5043605;28;20059;-76
2023/10/08 09:28:07;;;;;;;8.60;1.73;;;16.20;99.90;;;;;;5043510;28;20048;-76
2023/10/08 09:30:37;;;;;;;10.38;1.52;;;16.30;99.90;;;;;;5048426;28;20052;-75
2023/10/08 09:33:07;;;;;;;9.45;2.25;;;16.40;99.90;;;;;;5049311;28;20052;-75
2023/10/08 09:35:34;;;;;;;8.65;1.75;;;16.50;99.90;;;;;;5044738;28;20055;-75
2023/10/08 09:38:03;;;;;;;11.15;2.63;;;16.40;99.90;;;;;;5039064;28;20041;-76
2023/10/08 09:40:29;;;;;;;16.00;1.92;;;16.50;99.90;;;;;;5059680;28;20423;-74
2023/10/08 09:42:56;;;;;;;8.43;1.52;;;16.60;99.90;;;;;;5024959;28;20052;-76
2023/10/08 09:45:22;;;;;;;15.70;1.52;;;16.60;99.90;;;;;;5063474;28;20044;-73
2023/10/08 09:47:57;;;;;;;11.27;1.65;;;16.50;99.90;;;;;;5061382;28;20059;-74
2023/10/08 09:50:32;;;;;;;9.35;1.55;;;16.60;99.90;;;;;;5065130;28;20091;-75
2023/10/08 09:52:57;;;;;;;;;;;16.50;99.90;;;;;;5062455;28;20040;-75
2023/10/08 09:55:23;;;;;;;11.30;1.60;;;16.50;99.90;;;;;;5042701;28;19950;-74
2023/10/08 09:57:51;;;;;;;8.10;1.30;;;16.50;99.90;;;;;;5046722;28;20052;-74
2023/10/08 10:00:29;;;;;;;8.80;1.83;;;16.40;99.90;;;;;;5039875;28;20060;-75
2023/10/08 10:02:55;;;;;;;9.43;2.20;;;16.40;99.90;;;;;;5062738;28;20129;-75
2023/10/08 10:05:21;;;;;;;8.20;1.50;;;16.60;99.90;;;;;;5064545;28;20042;-76
2023/10/08 10:07:50;;;;;;;8.32;1.55;;;16.90;99.90;;;;;;5062508;28;20048;-76
2023/10/08 10:10:26;;;;;;;9.02;1.52;;;17.10;99.90;;;;;;5042344;28;20091;-74
2023/10/08 10:12:52;;;;;;;9.95;1.80;;;17.30;99.90;;;;;;5065415;28;20498;-73
2023/10/08 10:15:21;;;;;;;9.82;1.45;;;17.60;99.90;;;;;;5061348;28;20035;-75
2023/10/08 10:17:49;;;;;;;10.48;1.73;;;17.60;99.90;;;;;;5058177;28;20479;-76
2023/10/08 10:20:16;;;;;;;11.98;1.55;;;17.50;99.90;;;;;;5066231;28;20139;-74
2023/10/08 10:22:43;;;;;;;9.93;1.55;;;17.40;99.90;;;;;;5045289;28;20052;-76
2023/10/08 10:25:17;;;;;;;8.50;1.88;;;17.50;99.90;;;;;;5061707;28;20071;-76
2023/10/08 10:28:04;;;;;;;10.50;1.40;;;17.50;99.90;;;;;;5059728;28;20092;-75
2023/10/08 10:30:30;;;;;;;10.98;1.40;;;17.30;99.90;;;;;;5058312;28;20419;-75
2023/10/08 10:32:59;;;;;;;12.38;1.83;;;17.20;99.90;;;;;;5058455;28;20069;-76
2023/10/08 10:35:27;;;;;;;6.82;1.40;;;17.30;99.90;;;;;;5061018;28;20048;-77
2023/10/08 10:37:55;;;;;;;5.47;1.35;;;17.30;99.90;;;;;;5043094;28;20056;-75
2023/10/08 10:40:29;;;;;;;8.25;1.50;;;17.30;99.90;;;;;;5040100;28;20519;-76
2023/10/08 10:43:00;;;;;;;7.18;1.20;;;17.30;99.90;;;;;;5057266;28;20047;-76
2023/10/08 10:45:43;;;;;;;14.50;1.50;;;17.40;99.90;;;;;;5059357;28;20519;-76
2023/10/08 10:51:08;;;;;;;8.82;1.40;;;17.90;99.90;;;;;;5054146;28;20045;-76
2023/10/08 10:53:56;;;;;;;6.07;1.33;;;18.10;99.90;;;;;;5059329;28;20041;-75
2023/10/08 10:56:39;;;;;;;9.75;1.45;;;18.30;99.90;;;;;;5060610;28;20406;-77
2023/10/08 10:59:18;;;;;;;11.38;1.80;;;18.60;99.90;;;;;;5054508;28;20037;-76
2023/10/08 11:02:05;;;;;;;9.35;1.30;;;18.70;99.90;;;;;;5058177;28;20483;-77
2023/10/08 11:04:33;;;;;;;10.18;1.50;;;18.70;99.90;;;;;;5054965;28;20056;-76
2023/10/08 11:07:00;;;;;;;10.25;2.00;;;18.90;99.90;;;;;;5038789;28;20483;-76
2023/10/08 11:09:37;;;;;;;7.78;1.50;;;19.00;99.90;;;;;;5057710;28;20049;-76
2023/10/08 11:12:10;;;;;;;8.10;1.80;;;19.10;99.90;;;;;;5042344;28;20577;-76
2023/10/08 11:14:41;;;;;;;11.20;1.60;;;19.20;99.90;;;;;;5061505;28;20066;-76
2023/10/08 11:17:15;;;;;;;12.27;1.52;;;19.20;99.90;;;;;;5060074;28;20059;-77
2023/10/08 11:19:45;;;;;;;6.55;1.50;;;19.20;99.90;;;;;;5062419;28;20052;-76
2023/10/08 11:22:15;;;;;;;11.07;1.40;;;19.20;99.90;;;;;;5057469;28;20052;-76
2023/10/08 11:24:44;;;;;;;9.25;1.70;;;19.10;99.90;;;;;;5057629;28;20037;-76
2023/10/08 11:27:16;;;;;;;7.90;1.30;;;19.10;99.90;;;;;;5059268;28;20080;-75
2023/10/08 11:29:47;;;;;;;11.55;1.77;;;18.90;99.90;;;;;;5060471;28;20085;-77
2023/10/08 11:32:25;;;;;;;7.43;1.60;;;18.70;99.90;;;;;;5058042;28;20055;-76
2023/10/08 11:35:15;;;;;;;7.72;1.20;;;18.80;99.90;;;;;;5051256;28;20065;-77
2023/10/08 11:37:51;;;;;;;8.73;1.45;;;18.70;99.90;;;;;;5037837;28;20044;-75
2023/10/08 11:40:29;;;;;;;6.72;1.10;;;18.70;99.90;;;;;;5058749;28;20060;-76
2023/10/08 11:42:58;;;;;;;6.07;1.25;;;18.70;99.90;;;;;;5057174;28;20041;-77
2023/10/08 11:45:25;;;;;;;5.20;0.90;;;18.70;99.90;;;;;;5058684;28;20867;-77
2023/10/08 11:48:03;;;;;;;9.20;1.42;;;18.70;99.90;;;;;;5061933;28;20045;-76
2023/10/08 11:50:31;;;;;;;13.50;1.65;;;18.60;99.90;;;;;;5055714;28;20041;-78
2023/10/08 11:53:05;;;;;;;8.73;1.30;;;18.60;99.90;;;;;;5053470;28;20040;-76
2023/10/08 11:55:35;;;;;;;11.00;1.53;;;18.70;99.90;;;;;;5043824;28;20087;-76
2023/10/08 11:58:09;;;;;;;12.27;1.65;;;18.70;99.90;;;;;;5061126;28;20803;-76
2023/10/08 12:00:43;;;;;;;7.85;1.25;;;18.80;99.90;;;;;;5061817;28;20060;-77
2023/10/08 12:03:18;;;;;;;9.93;1.60;;;18.80;99.90;;;;;;5063639;28;20498;-77
2023/10/08 12:05:47;;;;;;;13.20;1.85;;;18.90;99.90;;;;;;5062319;28;20487;-78
2023/10/08 12:08:20;;;;;;;5.82;1.20;;;18.80;99.90;;;;;;5042934;28;20045;-78
2023/10/08 12:10:47;;;;;;;8.45;1.52;;;18.70;99.90;;;;;;5062863;28;20049;-80
2023/10/08 12:13:16;;;;;;;10.15;1.63;;;18.70;99.90;;;;;;5063669;28;20048;-79
2023/10/08 12:15:44;;;;;;;9.38;1.48;;;18.70;99.90;;;;;;5063646;28;20052;-78
2023/10/08 12:18:25;;;;;;;7.65;1.17;;;18.70;99.90;;;;;;5060066;28;20045;-79
2023/10/08 12:20:52;;;;;;;8.57;1.42;;;18.70;99.90;;;;;;5060606;28;20051;-79
2023/10/08 12:23:28;;;;;;;7.20;1.23;;;18.70;99.90;;;;;;5063655;28;20040;-79
2023/10/08 12:25:57;;;;;;;7.30;1.17;;;18.80;99.90;;;;;;5063938;28;20094;-79
2023/10/08 12:28:23;;;;;;;7.20;1.48;;;18.90;99.90;;;;;;5060492;28;20192;-80
2023/10/08 12:30:52;;;;;;;9.38;1.63;;;18.90;99.90;;;;;;5060182;28;20098;-77
2023/10/08 12:33:24;;;;;;;8.10;1.20;;;19.00;99.90;;;;;;5043824;28;20080;-79
2023/10/08 12:35:53;;;;;;;8.07;1.10;;;19.00;99.90;;;;;;5047403;28;20506;-80
2023/10/08 12:38:22;;;;;;;10.05;1.23;;;18.90;99.90;;;;;;5043976;28;20060;-80
2023/10/08 12:40:54;;;;;;;10.48;1.67;;;19.00;99.90;;;;;;5045146;28;20471;-80
2023/10/08 12:43:27;;;;;;;8.05;1.42;;;19.10;99.90;;;;;;5061899;28;20045;-79
2023/10/08 12:45:53;;;;;;;9.82;1.23;;;19.10;99.90;;;;;;5041621;28;20147;-79
2023/10/08 12:48:27;;;;;;;8.60;1.48;;;19.30;99.90;;;;;;5050010;28;20049;-79
2023/10/08 12:50:56;;;;;;;10.02;1.45;;;19.40;99.90;;;;;;5060129;28;20045;-79
2023/10/08 12:53:38;;;;;;;13.52;1.50;;;19.60;99.90;;;;;;5041737;28;20143;-79
2023/10/08 12:56:05;;;;;;;5.05;1.00;;;19.70;99.90;;;;;;5062636;28;20037;-80
2023/10/08 12:58:43;;;;;;;9.18;1.33;;;19.90;99.90;;;;;;5062421;28;20106;-79
2023/10/08 13:01:13;;;;;;;10.55;1.52;;;20.00;99.90;;;;;;5059492;28;20437;-78
2023/10/08 13:03:42;;;;;;;9.20;1.75;;;20.00;99.90;;;;;;5060342;28;20045;-80
2023/10/08 13:06:14;;;;;;;5.97;1.20;;;20.00;99.90;;;;;;5061861;28;20040;-79
2023/10/08 13:08:41;;;;;;;6.75;1.58;;;20.00;99.90;;;;;;5062138;28;20059;-80
2023/10/08 13:11:06;;;;;;;8.15;1.10;;;20.10;99.90;;;;;;5059646;28;20059;-80
2023/10/08 13:13:33;;;;;;;10.13;1.67;;;20.20;99.90;;;;;;5041361;28;20036;-80
2023/10/08 13:16:02;;;;;;;6.22;1.15;;;20.30;99.90;;;;;;5049822;28;20040;-79
2023/10/08 13:18:30;;;;;;;11.27;1.60;;;20.20;99.90;;;;;;5059420;28;20056;-79
2023/10/08 13:20:57;;;;;;;7.80;1.27;;;20.50;99.90;;;;;;5060010;28;20049;-79
2023/10/08 13:23:23;;;;;;;8.43;1.60;;;20.70;99.90;;;;;;5044462;28;20455;-80
2023/10/08 13:25:55;;;;;;;6.85;1.20;;;20.80;99.90;;;;;;5062387;28;20079;-80
2023/10/08 13:28:22;;;;;;;9.07;1.33;;;20.90;99.90;;;;;;5058868;28;20049;-79
2023/10/08 13:30:52;;;;;;;7.50;1.67;;;20.90;99.90;;;;;;5058845;28;20487;-79
2023/10/08 13:33:19;;;;;;;3.60;0.80;;;20.70;99.90;;;;;;5060835;28;20095;-78
2023/10/08 13:35:45;;;;;;;9.85;1.35;;;20.50;99.90;;;;;;5061810;28;20056;-78
2023/10/08 13:38:13;;;;;;;6.40;1.10;;;20.40;99.90;;;;;;5061423;28;20052;-79
2023/10/08 13:40:43;;;;;;;8.38;1.35;;;20.20;99.90;;;;;;5041221;28;20059;-79
2023/10/08 13:43:11;;;;;;;12.38;1.40;;;20.00;99.90;;;;;;5058755;28;20055;-80
2023/10/08 13:45:39;;;;;;;6.10;1.13;;;19.90;99.90;;;;;;5040782;28;20091;-79
2023/10/08 13:48:05;;;;;;;10.60;1.38;;;19.80;99.90;;;;;;5040867;28;20118;-79
2023/10/08 13:50:31;;;;;;;7.65;1.30;;;19.60;99.90;;;;;;5060086;28;20049;-79
2023/10/08 13:52:58;;;;;;;8.27;1.70;;;19.60;99.90;;;;;;5043940;28;20044;-80
2023/10/08 13:55:25;;;;;;;6.07;1.42;;;19.50;99.90;;;;;;5043902;28;20060;-80
2023/10/08 13:57:54;;;;;;;10.95;1.35;;;19.50;99.90;;;;;;5040673;28;20056;-79
2023/10/08 14:00:25;;;;;;;7.47;1.27;;;19.40;99.90;;;;;;5058569;28;20049;-79
2023/10/08 14:02:52;;;;;;;7.90;1.15;;;19.30;99.90;;;;;;5061260;28;20486;-78
2023/10/08 14:05:23;;;;;;;9.38;1.60;;;19.30;99.90;;;;;;5061431;28;20048;-78
2023/10/08 14:07:53;;;;;;;9.50;1.65;;;19.10;99.90;;;;;;5059907;28;20098;-79
2023/10/08 14:10:18;;;;;;;15.27;2.08;;;19.00;99.90;;;;;;5058449;28;20057;-77
2023/10/08 14:12:50;;;;;;;12.43;1.60;;;18.90;99.90;;;;;;5059338;28;20154;-77
2023/10/08 14:15:16;;;;;;;5.78;1.48;;;18.80;99.90;;;;;;5061747;28;20048;-78
2023/10/08 14:17:53;;;;;;;7.18;1.30;;;18.80;99.90;;;;;;5060945;28;20037;-79
2023/10/08 14:20:22;;;;;;;7.05;1.35;;;18.60;99.90;;;;;;5040165;28;20103;-77
2023/10/08 14:22:57;;;;;;;9.50;1.30;;;18.50;99.90;;;;;;5040032;28;20503;-79
2023/10/08 14:25:27;;;;;;;9.00;1.50;;;18.40;99.90;;;;;;5065440;28;20060;-80